sensor_id;sensor_type;location;lat;lon;timestamp;P1;durP1;ratioP1;P2;durP2;ratioP2
11189;SDS011;5651;50.926;4.718;2022-09-21T00:00:33;21.75;;;10.70;;
11189;SDS011;5651;50.926;4.718;2022-09-21T00:02:59;15.45;;;10.18;;
11189;SDS011;5651;50.926;4.718;2022-09-21T00:05:25;15.10;;;9.60;;
11189;SDS011;5651;50.926;4.718;2022-09-21T00:07:51;17.05;;;9.27;;
11189;SDS011;5651;50.926;4.718;2022-09-21T00:10:18;14.23;;;9.18;;
11189;SDS011;5651;50.926;4.718;2022-09-21T00:12:45;17.85;;;9.45;;
11189;SDS011;5651;50.926;4.718;2022-09-21T00:15:12;16.15;;;10.15;;
11189;SDS011;5651;50.926;4.718;2022-09-21T00:17:40;21.70;;;11.13;;
11189;SDS011;5651;50.926;4.718;2022-09-21T00:20:05;20.08;;;10.35;;
11189;SDS011;5651;50.926;4.718;2022-09-21T00:22:32;18.33;;;11.52;;
11189;SDS011;5651;50.926;4.718;2022-09-21T00:24:58;22.55;;;11.27;;
11189;SDS011;5651;50.926;4.718;2022-09-21T00:27:27;18.27;;;9.82;;
11189;SDS011;5651;50.926;4.718;2022-09-21T00:29:57;23.90;;;10.15;;
11189;SDS011;5651;50.926;4.718;2022-09-21T00:32:26;23.43;;;11.77;;
11189;SDS011;5651;50.926;4.718;2022-09-21T00:34:53;18.67;;;10.13;;
11189;SDS011;5651;50.926;4.718;2022-09-21T00:37:19;23.75;;;11.13;;
11189;SDS011;5651;50.926;4.718;2022-09-21T00:39:45;18.20;;;10.07;;
11189;SDS011;5651;50.926;4.718;2022-09-21T00:44:46;22.13;;;10.20;;
11189;SDS011;5651;50.926;4.718;2022-09-21T00:47:13;19.95;;;11.10;;
11189;SDS011;5651;50.926;4.718;2022-09-21T00:49:42;18.42;;;9.40;;
11189;SDS011;5651;50.926;4.718;2022-09-21T00:52:13;21.58;;;9.93;;
11189;SDS011;5651;50.926;4.718;2022-09-21T00:54:53;15.30;;;10.10;;
11189;SDS011;5651;50.926;4.718;2022-09-21T00:57:23;19.67;;;9.30;;
11189;SDS011;5651;50.926;4.718;2022-09-21T00:59:53;16.20;;;8.63;;
11189;SDS011;5651;50.926;4.718;2022-09-21T01:02:20;16.48;;;8.93;;
11189;SDS011;5651;50.926;4.718;2022-09-21T01:04:47;18.95;;;9.05;;
11189;SDS011;5651;50.926;4.718;2022-09-21T01:07:14;17.70;;;9.23;;
11189;SDS011;5651;50.926;4.718;2022-09-21T01:09:43;15.73;;;9.20;;
11189;SDS011;5651;50.926;4.718;2022-09-21T01:31:43;18.00;;;9.60;;
11189;SDS011;5651;50.926;4.718;2022-09-21T01:34:41;16.88;;;9.35;;
11189;SDS011;5651;50.926;4.718;2022-09-21T01:37:21;20.13;;;9.20;;
11189;SDS011;5651;50.926;4.718;2022-09-21T01:39:52;25.50;;;11.52;;
11189;SDS011;5651;50.926;4.718;2022-09-21T01:42:35;20.17;;;11.93;;
11189;SDS011;5651;50.926;4.718;2022-09-21T01:45:04;21.38;;;11.15;;
11189;SDS011;5651;50.926;4.718;2022-09-21T01:47:34;16.92;;;9.90;;
11189;SDS011;5651;50.926;4.718;2022-09-21T01:50:04;21.65;;;10.40;;
11189;SDS011;5651;50.926;4.718;2022-09-21T01:55:20;18.48;;;10.40;;
11189;SDS011;5651;50.926;4.718;2022-09-21T01:57:55;22.33;;;10.63;;
11189;SDS011;5651;50.926;4.718;2022-09-21T02:00:28;22.02;;;11.13;;
11189;SDS011;5651;50.926;4.718;2022-09-21T02:05:27;17.25;;;9.75;;
11189;SDS011;5651;50.926;4.718;2022-09-21T02:07:54;18.77;;;10.02;;
11189;SDS011;5651;50.926;4.718;2022-09-21T02:10:23;25.83;;;10.63;;
11189;SDS011;5651;50.926;4.718;2022-09-21T02:13:11;21.42;;;10.02;;
11189;SDS011;5651;50.926;4.718;2022-09-21T02:21:00;17.58;;;10.05;;
11189;SDS011;5651;50.926;4.718;2022-09-21T02:23:42;21.90;;;10.27;;
11189;SDS011;5651;50.926;4.718;2022-09-21T02:26:17;17.45;;;10.07;;
11189;SDS011;5651;50.926;4.718;2022-09-21T02:37:22;19.55;;;10.75;;
11189;SDS011;5651;50.926;4.718;2022-09-21T02:40:00;17.58;;;9.05;;
11189;SDS011;5651;50.926;4.718;2022-09-21T02:42:35;18.20;;;9.98;;
11189;SDS011;5651;50.926;4.718;2022-09-21T02:47:38;19.85;;;8.98;;
11189;SDS011;5651;50.926;4.718;2022-09-21T02:50:16;17.95;;;9.88;;
11189;SDS011;5651;50.926;4.718;2022-09-21T02:52:47;16.88;;;9.55;;
11189;SDS011;5651;50.926;4.718;2022-09-21T02:55:13;17.00;;;9.07;;
11189;SDS011;5651;50.926;4.718;2022-09-21T02:57:42;17.45;;;9.40;;
11189;SDS011;5651;50.926;4.718;2022-09-21T03:00:09;19.88;;;9.52;;
11189;SDS011;5651;50.926;4.718;2022-09-21T03:02:39;19.85;;;10.35;;
11189;SDS011;5651;50.926;4.718;2022-09-21T03:05:08;18.48;;;9.60;;
11189;SDS011;5651;50.926;4.718;2022-09-21T03:07:35;20.48;;;9.93;;
11189;SDS011;5651;50.926;4.718;2022-09-21T03:10:02;22.63;;;10.50;;
11189;SDS011;5651;50.926;4.718;2022-09-21T03:12:29;21.70;;;8.57;;
11189;SDS011;5651;50.926;4.718;2022-09-21T03:14:57;20.10;;;9.02;;
11189;SDS011;5651;50.926;4.718;2022-09-21T03:17:22;20.38;;;10.45;;
11189;SDS011;5651;50.926;4.718;2022-09-21T03:19:48;17.45;;;9.32;;
11189;SDS011;5651;50.926;4.718;2022-09-21T03:22:14;18.98;;;10.13;;
11189;SDS011;5651;50.926;4.718;2022-09-21T03:24:42;18.08;;;9.77;;
11189;SDS011;5651;50.926;4.718;2022-09-21T03:27:15;16.25;;;8.88;;
11189;SDS011;5651;50.926;4.718;2022-09-21T03:29:45;19.33;;;9.48;;
11189;SDS011;5651;50.926;4.718;2022-09-21T03:32:11;18.88;;;10.07;;
11189;SDS011;5651;50.926;4.718;2022-09-21T03:34:39;17.33;;;9.30;;
11189;SDS011;5651;50.926;4.718;2022-09-21T03:37:05;21.10;;;9.57;;
11189;SDS011;5651;50.926;4.718;2022-09-21T03:39:32;16.83;;;9.52;;
11189;SDS011;5651;50.926;4.718;2022-09-21T03:41:58;18.70;;;8.82;;
11189;SDS011;5651;50.926;4.718;2022-09-21T03:44:25;17.80;;;9.68;;
11189;SDS011;5651;50.926;4.718;2022-09-21T03:46:51;16.98;;;9.63;;
11189;SDS011;5651;50.926;4.718;2022-09-21T03:49:18;20.58;;;9.70;;
11189;SDS011;5651;50.926;4.718;2022-09-21T03:51:44;20.50;;;9.10;;
11189;SDS011;5651;50.926;4.718;2022-09-21T03:54:10;18.70;;;10.15;;
11189;SDS011;5651;50.926;4.718;2022-09-21T03:56:36;22.05;;;10.18;;
11189;SDS011;5651;50.926;4.718;2022-09-21T03:59:02;18.63;;;9.73;;
11189;SDS011;5651;50.926;4.718;2022-09-21T04:01:28;20.52;;;11.45;;
11189;SDS011;5651;50.926;4.718;2022-09-21T04:03:54;19.25;;;10.52;;
11189;SDS011;5651;50.926;4.718;2022-09-21T04:06:20;17.48;;;10.10;;
11189;SDS011;5651;50.926;4.718;2022-09-21T04:08:46;20.63;;;10.23;;
11189;SDS011;5651;50.926;4.718;2022-09-21T04:11:12;17.40;;;9.15;;
11189;SDS011;5651;50.926;4.718;2022-09-21T04:13:41;22.00;;;10.18;;
11189;SDS011;5651;50.926;4.718;2022-09-21T04:16:07;19.23;;;10.57;;
11189;SDS011;5651;50.926;4.718;2022-09-21T04:18:34;20.38;;;10.32;;
11189;SDS011;5651;50.926;4.718;2022-09-21T04:21:00;18.92;;;10.35;;
11189;SDS011;5651;50.926;4.718;2022-09-21T04:23:26;20.88;;;10.98;;
11189;SDS011;5651;50.926;4.718;2022-09-21T04:25:52;18.90;;;10.02;;
11189;SDS011;5651;50.926;4.718;2022-09-21T04:28:19;22.17;;;9.50;;
11189;SDS011;5651;50.926;4.718;2022-09-21T04:30:45;17.92;;;9.65;;
11189;SDS011;5651;50.926;4.718;2022-09-21T04:33:11;18.40;;;9.98;;
11189;SDS011;5651;50.926;4.718;2022-09-21T04:35:38;23.23;;;10.85;;
11189;SDS011;5651;50.926;4.718;2022-09-21T04:38:05;19.90;;;10.65;;
11189;SDS011;5651;50.926;4.718;2022-09-21T04:40:33;19.77;;;11.65;;
11189;SDS011;5651;50.926;4.718;2022-09-21T04:42:58;21.20;;;10.40;;
11189;SDS011;5651;50.926;4.718;2022-09-21T04:45:24;22.85;;;10.52;;
11189;SDS011;5651;50.926;4.718;2022-09-21T04:47:50;22.10;;;10.15;;
11189;SDS011;5651;50.926;4.718;2022-09-21T04:50:16;20.27;;;10.30;;
11189;SDS011;5651;50.926;4.718;2022-09-21T04:52:42;20.58;;;9.68;;
11189;SDS011;5651;50.926;4.718;2022-09-21T04:55:07;24.52;;;11.10;;
11189;SDS011;5651;50.926;4.718;2022-09-21T04:57:33;19.30;;;10.38;;
11189;SDS011;5651;50.926;4.718;2022-09-21T05:00:00;17.73;;;9.45;;
11189;SDS011;5651;50.926;4.718;2022-09-21T05:02:27;22.02;;;10.30;;
11189;SDS011;5651;50.926;4.718;2022-09-21T05:04:52;14.77;;;9.48;;
11189;SDS011;5651;50.926;4.718;2022-09-21T05:07:18;20.33;;;10.57;;
11189;SDS011;5651;50.926;4.718;2022-09-21T05:09:44;21.95;;;10.50;;
11189;SDS011;5651;50.926;4.718;2022-09-21T05:12:28;20.65;;;11.25;;
11189;SDS011;5651;50.926;4.718;2022-09-21T05:14:58;17.98;;;9.70;;
11189;SDS011;5651;50.926;4.718;2022-09-21T05:17:24;20.40;;;10.23;;
11189;SDS011;5651;50.926;4.718;2022-09-21T05:19:50;17.25;;;9.43;;
11189;SDS011;5651;50.926;4.718;2022-09-21T05:22:17;18.95;;;9.32;;
11189;SDS011;5651;50.926;4.718;2022-09-21T05:24:44;16.45;;;9.48;;
11189;SDS011;5651;50.926;4.718;2022-09-21T05:27:10;20.48;;;9.48;;
11189;SDS011;5651;50.926;4.718;2022-09-21T05:29:37;21.63;;;9.38;;
11189;SDS011;5651;50.926;4.718;2022-09-21T05:40:16;24.02;;;13.15;;
11189;SDS011;5651;50.926;4.718;2022-09-21T05:42:42;20.13;;;12.13;;
11189;SDS011;5651;50.926;4.718;2022-09-21T05:45:12;17.55;;;9.90;;
11189;SDS011;5651;50.926;4.718;2022-09-21T05:48:02;23.00;;;10.93;;
11189;SDS011;5651;50.926;4.718;2022-09-21T05:50:47;16.10;;;8.93;;
11189;SDS011;5651;50.926;4.718;2022-09-21T05:53:49;19.75;;;10.82;;
11189;SDS011;5651;50.926;4.718;2022-09-21T05:59:32;23.27;;;10.63;;
11189;SDS011;5651;50.926;4.718;2022-09-21T06:04:47;23.38;;;10.82;;
11189;SDS011;5651;50.926;4.718;2022-09-21T06:07:14;25.75;;;12.13;;
11189;SDS011;5651;50.926;4.718;2022-09-21T06:09:40;17.67;;;10.15;;
11189;SDS011;5651;50.926;4.718;2022-09-21T06:12:05;23.17;;;11.55;;
11189;SDS011;5651;50.926;4.718;2022-09-21T06:14:35;18.95;;;10.65;;
11189;SDS011;5651;50.926;4.718;2022-09-21T06:17:02;21.25;;;10.98;;
11189;SDS011;5651;50.926;4.718;2022-09-21T06:19:28;20.60;;;10.07;;
11189;SDS011;5651;50.926;4.718;2022-09-21T06:21:53;20.42;;;10.43;;
11189;SDS011;5651;50.926;4.718;2022-09-21T06:24:19;22.70;;;10.65;;
11189;SDS011;5651;50.926;4.718;2022-09-21T06:26:45;27.48;;;12.10;;
11189;SDS011;5651;50.926;4.718;2022-09-21T06:29:10;23.50;;;11.38;;
11189;SDS011;5651;50.926;4.718;2022-09-21T06:31:36;22.58;;;10.93;;
11189;SDS011;5651;50.926;4.718;2022-09-21T06:34:02;23.23;;;11.00;;
11189;SDS011;5651;50.926;4.718;2022-09-21T06:36:28;25.63;;;12.57;;
11189;SDS011;5651;50.926;4.718;2022-09-21T06:38:54;23.08;;;11.95;;
11189;SDS011;5651;50.926;4.718;2022-09-21T06:41:19;26.50;;;12.32;;
11189;SDS011;5651;50.926;4.718;2022-09-21T06:43:45;23.70;;;11.50;;
11189;SDS011;5651;50.926;4.718;2022-09-21T06:46:11;26.92;;;12.60;;
11189;SDS011;5651;50.926;4.718;2022-09-21T06:48:37;27.65;;;13.63;;
11189;SDS011;5651;50.926;4.718;2022-09-21T06:51:03;24.50;;;13.13;;
11189;SDS011;5651;50.926;4.718;2022-09-21T06:53:31;31.65;;;14.45;;
11189;SDS011;5651;50.926;4.718;2022-09-21T06:56:04;22.55;;;13.27;;
11189;SDS011;5651;50.926;4.718;2022-09-21T06:58:32;26.77;;;14.00;;
11189;SDS011;5651;50.926;4.718;2022-09-21T07:01:03;22.70;;;13.75;;
11189;SDS011;5651;50.926;4.718;2022-09-21T07:03:31;26.85;;;13.95;;
11189;SDS011;5651;50.926;4.718;2022-09-21T07:05:57;32.50;;;14.48;;
11189;SDS011;5651;50.926;4.718;2022-09-21T07:08:22;27.48;;;14.57;;
11189;SDS011;5651;50.926;4.718;2022-09-21T07:10:48;25.20;;;13.95;;
11189;SDS011;5651;50.926;4.718;2022-09-21T07:13:14;27.85;;;14.02;;
11189;SDS011;5651;50.926;4.718;2022-09-21T07:15:42;21.20;;;13.73;;
11189;SDS011;5651;50.926;4.718;2022-09-21T07:18:11;23.85;;;15.00;;
11189;SDS011;5651;50.926;4.718;2022-09-21T07:20:38;23.33;;;15.02;;
11189;SDS011;5651;50.926;4.718;2022-09-21T07:23:11;21.65;;;13.90;;
11189;SDS011;5651;50.926;4.718;2022-09-21T07:25:40;20.00;;;12.63;;
11189;SDS011;5651;50.926;4.718;2022-09-21T07:28:06;20.88;;;12.82;;
11189;SDS011;5651;50.926;4.718;2022-09-21T07:30:32;26.05;;;14.25;;
11189;SDS011;5651;50.926;4.718;2022-09-21T07:32:58;29.42;;;15.23;;
11189;SDS011;5651;50.926;4.718;2022-09-21T07:35:24;25.13;;;13.48;;
11189;SDS011;5651;50.926;4.718;2022-09-21T07:37:49;24.90;;;14.80;;
11189;SDS011;5651;50.926;4.718;2022-09-21T07:40:15;21.48;;;14.27;;
11189;SDS011;5651;50.926;4.718;2022-09-21T07:42:41;23.23;;;15.23;;
11189;SDS011;5651;50.926;4.718;2022-09-21T07:45:09;22.92;;;15.20;;
11189;SDS011;5651;50.926;4.718;2022-09-21T07:47:35;24.75;;;15.50;;
11189;SDS011;5651;50.926;4.718;2022-09-21T07:50:01;25.08;;;15.57;;
11189;SDS011;5651;50.926;4.718;2022-09-21T07:52:26;24.65;;;15.77;;
11189;SDS011;5651;50.926;4.718;2022-09-21T07:54:52;21.08;;;15.43;;
11189;SDS011;5651;50.926;4.718;2022-09-21T07:57:18;28.85;;;17.27;;
11189;SDS011;5651;50.926;4.718;2022-09-21T08:00:03;27.60;;;17.33;;
11189;SDS011;5651;50.926;4.718;2022-09-21T08:02:29;28.05;;;18.65;;
11189;SDS011;5651;50.926;4.718;2022-09-21T08:04:55;26.15;;;18.33;;
11189;SDS011;5651;50.926;4.718;2022-09-21T08:07:20;26.10;;;18.15;;
11189;SDS011;5651;50.926;4.718;2022-09-21T08:09:46;24.55;;;16.33;;
11189;SDS011;5651;50.926;4.718;2022-09-21T08:12:15;24.58;;;17.90;;
11189;SDS011;5651;50.926;4.718;2022-09-21T08:14:45;27.52;;;18.20;;
11189;SDS011;5651;50.926;4.718;2022-09-21T08:17:12;27.60;;;18.13;;
11189;SDS011;5651;50.926;4.718;2022-09-21T08:19:38;25.75;;;18.15;;
11189;SDS011;5651;50.926;4.718;2022-09-21T08:22:04;22.13;;;15.73;;
11189;SDS011;5651;50.926;4.718;2022-09-21T08:24:31;27.08;;;16.05;;
11189;SDS011;5651;50.926;4.718;2022-09-21T08:26:57;23.92;;;14.23;;
11189;SDS011;5651;50.926;4.718;2022-09-21T08:29:24;21.13;;;13.00;;
11189;SDS011;5651;50.926;4.718;2022-09-21T08:31:50;17.52;;;12.05;;
11189;SDS011;5651;50.926;4.718;2022-09-21T08:34:18;25.85;;;14.77;;
11189;SDS011;5651;50.926;4.718;2022-09-21T08:36:44;20.17;;;12.48;;
11189;SDS011;5651;50.926;4.718;2022-09-21T08:39:10;25.55;;;14.55;;
11189;SDS011;5651;50.926;4.718;2022-09-21T08:44:16;16.85;;;12.30;;
11189;SDS011;5651;50.926;4.718;2022-09-21T08:46:46;19.40;;;12.30;;
11189;SDS011;5651;50.926;4.718;2022-09-21T08:49:18;17.88;;;11.57;;
11189;SDS011;5651;50.926;4.718;2022-09-21T08:51:55;15.63;;;10.57;;
11189;SDS011;5651;50.926;4.718;2022-09-21T08:54:29;17.92;;;10.15;;
11189;SDS011;5651;50.926;4.718;2022-09-21T08:56:56;20.13;;;10.57;;
11189;SDS011;5651;50.926;4.718;2022-09-21T08:59:22;14.75;;;10.13;;
11189;SDS011;5651;50.926;4.718;2022-09-21T09:01:51;14.18;;;9.70;;
11189;SDS011;5651;50.926;4.718;2022-09-21T09:04:30;13.05;;;9.13;;
11189;SDS011;5651;50.926;4.718;2022-09-21T09:15:47;14.63;;;8.88;;
11189;SDS011;5651;50.926;4.718;2022-09-21T09:21:26;13.43;;;6.93;;
11189;SDS011;5651;50.926;4.718;2022-09-21T09:24:03;11.88;;;7.40;;
11189;SDS011;5651;50.926;4.718;2022-09-21T09:26:37;9.30;;;5.70;;
11189;SDS011;5651;50.926;4.718;2022-09-21T09:31:57;9.20;;;5.85;;
11189;SDS011;5651;50.926;4.718;2022-09-21T09:34:28;11.77;;;6.57;;
11189;SDS011;5651;50.926;4.718;2022-09-21T09:36:59;11.88;;;5.80;;
11189;SDS011;5651;50.926;4.718;2022-09-21T09:39:34;10.88;;;5.25;;
11189;SDS011;5651;50.926;4.718;2022-09-21T09:47:34;14.07;;;6.32;;
11189;SDS011;5651;50.926;4.718;2022-09-21T09:50:11;11.63;;;6.25;;
11189;SDS011;5651;50.926;4.718;2022-09-21T09:52:40;12.07;;;7.28;;
11189;SDS011;5651;50.926;4.718;2022-09-21T09:55:18;11.65;;;7.25;;
11189;SDS011;5651;50.926;4.718;2022-09-21T09:57:47;11.57;;;6.88;;
11189;SDS011;5651;50.926;4.718;2022-09-21T10:00:15;12.18;;;7.07;;
11189;SDS011;5651;50.926;4.718;2022-09-21T10:02:46;11.85;;;6.97;;
11189;SDS011;5651;50.926;4.718;2022-09-21T10:05:35;12.82;;;6.60;;
11189;SDS011;5651;50.926;4.718;2022-09-21T10:08:05;9.73;;;5.43;;
11189;SDS011;5651;50.926;4.718;2022-09-21T10:10:50;8.75;;;4.18;;
11189;SDS011;5651;50.926;4.718;2022-09-21T10:13:38;10.75;;;4.60;;
11189;SDS011;5651;50.926;4.718;2022-09-21T10:16:14;6.82;;;3.92;;
11189;SDS011;5651;50.926;4.718;2022-09-21T10:21:16;8.15;;;4.13;;
11189;SDS011;5651;50.926;4.718;2022-09-21T10:23:58;9.90;;;4.67;;
11189;SDS011;5651;50.926;4.718;2022-09-21T10:26:36;5.85;;;3.90;;
11189;SDS011;5651;50.926;4.718;2022-09-21T10:31:53;9.73;;;4.50;;
11189;SDS011;5651;50.926;4.718;2022-09-21T10:34:21;6.00;;;3.00;;
11189;SDS011;5651;50.926;4.718;2022-09-21T10:36:48;9.77;;;3.35;;
11189;SDS011;5651;50.926;4.718;2022-09-21T10:39:49;6.88;;;3.28;;
11189;SDS011;5651;50.926;4.718;2022-09-21T10:42:11;9.43;;;3.05;;
11189;SDS011;5651;50.926;4.718;2022-09-21T10:44:41;5.65;;;3.33;;
11189;SDS011;5651;50.926;4.718;2022-09-21T10:47:22;5.72;;;2.90;;
11189;SDS011;5651;50.926;4.718;2022-09-21T10:49:59;9.73;;;3.42;;
11189;SDS011;5651;50.926;4.718;2022-09-21T10:52:38;10.40;;;2.60;;
11189;SDS011;5651;50.926;4.718;2022-09-21T10:55:29;8.25;;;2.58;;
11189;SDS011;5651;50.926;4.718;2022-09-21T10:57:54;4.97;;;2.22;;
11189;SDS011;5651;50.926;4.718;2022-09-21T11:02:50;4.53;;;2.17;;
11189;SDS011;5651;50.926;4.718;2022-09-21T11:08:26;5.00;;;1.80;;
11189;SDS011;5651;50.926;4.718;2022-09-21T11:13:49;8.40;;;2.30;;
11189;SDS011;5651;50.926;4.718;2022-09-21T11:19:01;5.57;;;2.03;;
11189;SDS011;5651;50.926;4.718;2022-09-21T11:24:39;5.97;;;2.40;;
11189;SDS011;5651;50.926;4.718;2022-09-21T11:27:24;3.35;;;1.92;;
11189;SDS011;5651;50.926;4.718;2022-09-21T11:30:11;6.38;;;2.50;;
11189;SDS011;5651;50.926;4.718;2022-09-21T11:32:53;7.75;;;2.28;;
11189;SDS011;5651;50.926;4.718;2022-09-21T11:41:08;5.75;;;1.65;;
11189;SDS011;5651;50.926;4.718;2022-09-21T11:54:59;5.57;;;1.70;;
11189;SDS011;5651;50.926;4.718;2022-09-21T12:06:28;2.40;;;2.05;;
11189;SDS011;5651;50.926;4.718;2022-09-21T12:17:13;6.43;;;1.80;;
11189;SDS011;5651;50.926;4.718;2022-09-21T12:22:39;3.63;;;1.40;;
11189;SDS011;5651;50.926;4.718;2022-09-21T12:29:27;4.78;;;1.67;;
11189;SDS011;5651;50.926;4.718;2022-09-21T12:35:01;7.88;;;1.65;;
11189;SDS011;5651;50.926;4.718;2022-09-21T12:37:38;6.20;;;1.40;;
11189;SDS011;5651;50.926;4.718;2022-09-21T12:40:16;16.35;;;2.28;;
11189;SDS011;5651;50.926;4.718;2022-09-21T12:42:48;5.68;;;1.50;;
11189;SDS011;5651;50.926;4.718;2022-09-21T12:45:24;3.58;;;1.85;;
11189;SDS011;5651;50.926;4.718;2022-09-21T12:50:49;7.13;;;1.85;;
11189;SDS011;5651;50.926;4.718;2022-09-21T12:53:26;4.57;;;1.45;;
11189;SDS011;5651;50.926;4.718;2022-09-21T12:55:55;5.85;;;1.50;;
11189;SDS011;5651;50.926;4.718;2022-09-21T12:58:44;4.88;;;1.40;;
11189;SDS011;5651;50.926;4.718;2022-09-21T13:03:51;2.50;;;1.08;;
11189;SDS011;5651;50.926;4.718;2022-09-21T13:09:10;4.63;;;1.65;;
11189;SDS011;5651;50.926;4.718;2022-09-21T13:11:48;3.08;;;1.30;;
11189;SDS011;5651;50.926;4.718;2022-09-21T13:14:24;4.38;;;1.92;;
11189;SDS011;5651;50.926;4.718;2022-09-21T13:16:57;4.78;;;1.00;;
11189;SDS011;5651;50.926;4.718;2022-09-21T13:19:30;6.15;;;1.85;;
11189;SDS011;5651;50.926;4.718;2022-09-21T13:22:20;3.65;;;1.10;;
11189;SDS011;5651;50.926;4.718;2022-09-21T13:25:05;5.28;;;1.10;;
11189;SDS011;5651;50.926;4.718;2022-09-21T13:30:46;5.30;;;1.58;;
11189;SDS011;5651;50.926;4.718;2022-09-21T13:33:37;4.32;;;1.13;;
11189;SDS011;5651;50.926;4.718;2022-09-21T13:36:08;4.93;;;1.77;;
11189;SDS011;5651;50.926;4.718;2022-09-21T13:41:38;3.65;;;1.20;;
11189;SDS011;5651;50.926;4.718;2022-09-21T13:44:19;4.85;;;1.30;;
11189;SDS011;5651;50.926;4.718;2022-09-21T13:47:04;2.75;;;1.52;;
11189;SDS011;5651;50.926;4.718;2022-09-21T13:49:54;4.05;;;1.30;;
11189;SDS011;5651;50.926;4.718;2022-09-21T13:52:24;4.57;;;1.23;;
11189;SDS011;5651;50.926;4.718;2022-09-21T13:54:57;6.63;;;1.20;;
11189;SDS011;5651;50.926;4.718;2022-09-21T13:57:37;2.25;;;0.90;;
11189;SDS011;5651;50.926;4.718;2022-09-21T14:07:58;1.67;;;1.10;;
11189;SDS011;5651;50.926;4.718;2022-09-21T14:10:25;4.35;;;1.50;;
11189;SDS011;5651;50.926;4.718;2022-09-21T14:12:53;2.13;;;0.90;;
11189;SDS011;5651;50.926;4.718;2022-09-21T14:18:07;4.32;;;1.73;;
11189;SDS011;5651;50.926;4.718;2022-09-21T14:21:06;4.63;;;1.77;;
11189;SDS011;5651;50.926;4.718;2022-09-21T14:23:33;3.80;;;1.23;;
11189;SDS011;5651;50.926;4.718;2022-09-21T14:29:09;2.92;;;0.80;;
11189;SDS011;5651;50.926;4.718;2022-09-21T14:31:41;2.63;;;0.80;;
11189;SDS011;5651;50.926;4.718;2022-09-21T14:34:11;3.53;;;1.17;;
11189;SDS011;5651;50.926;4.718;2022-09-21T14:36:45;5.13;;;1.60;;
11189;SDS011;5651;50.926;4.718;2022-09-21T14:39:27;2.45;;;1.10;;
11189;SDS011;5651;50.926;4.718;2022-09-21T14:41:57;5.90;;;1.13;;
11189;SDS011;5651;50.926;4.718;2022-09-21T14:44:28;4.38;;;1.13;;
11189;SDS011;5651;50.926;4.718;2022-09-21T14:49:58;7.45;;;1.35;;
11189;SDS011;5651;50.926;4.718;2022-09-21T14:52:40;5.03;;;1.48;;
11189;SDS011;5651;50.926;4.718;2022-09-21T15:00:39;3.60;;;1.00;;
11189;SDS011;5651;50.926;4.718;2022-09-21T15:12:26;2.85;;;1.33;;
11189;SDS011;5651;50.926;4.718;2022-09-21T15:17:57;4.10;;;1.42;;
11189;SDS011;5651;50.926;4.718;2022-09-21T15:20:25;2.95;;;1.00;;
11189;SDS011;5651;50.926;4.718;2022-09-21T15:22:57;3.80;;;1.33;;
11189;SDS011;5651;50.926;4.718;2022-09-21T15:25:28;9.23;;;1.75;;
11189;SDS011;5651;50.926;4.718;2022-09-21T15:27:57;2.72;;;1.23;;
11189;SDS011;5651;50.926;4.718;2022-09-21T15:30:27;3.72;;;1.10;;
11189;SDS011;5651;50.926;4.718;2022-09-21T15:33:00;3.75;;;1.10;;
11189;SDS011;5651;50.926;4.718;2022-09-21T15:35:28;3.10;;;1.65;;
11189;SDS011;5651;50.926;4.718;2022-09-21T15:37:57;4.72;;;1.20;;
11189;SDS011;5651;50.926;4.718;2022-09-21T15:41:08;3.40;;;1.00;;
11189;SDS011;5651;50.926;4.718;2022-09-21T15:43:18;5.03;;;1.40;;
11189;SDS011;5651;50.926;4.718;2022-09-21T15:48:19;4.07;;;1.15;;
11189;SDS011;5651;50.926;4.718;2022-09-21T15:50:51;6.88;;;1.42;;
11189;SDS011;5651;50.926;4.718;2022-09-21T15:53:24;6.07;;;1.10;;
11189;SDS011;5651;50.926;4.718;2022-09-21T15:55:54;4.28;;;0.90;;
11189;SDS011;5651;50.926;4.718;2022-09-21T15:58:35;2.63;;;1.10;;
11189;SDS011;5651;50.926;4.718;2022-09-21T16:03:41;3.15;;;1.23;;
11189;SDS011;5651;50.926;4.718;2022-09-21T16:08:45;2.85;;;1.23;;
11189;SDS011;5651;50.926;4.718;2022-09-21T16:11:15;5.25;;;1.60;;
11189;SDS011;5651;50.926;4.718;2022-09-21T16:14:14;6.10;;;1.95;;
11189;SDS011;5651;50.926;4.718;2022-09-21T16:19:41;3.78;;;1.55;;
11189;SDS011;5651;50.926;4.718;2022-09-21T16:23:03;4.30;;;1.55;;
11189;SDS011;5651;50.926;4.718;2022-09-21T16:28:05;3.90;;;1.55;;
11189;SDS011;5651;50.926;4.718;2022-09-21T16:30:52;5.65;;;3.00;;
11189;SDS011;5651;50.926;4.718;2022-09-21T16:38:50;5.53;;;2.47;;
11189;SDS011;5651;50.926;4.718;2022-09-21T16:41:23;10.75;;;4.05;;
11189;SDS011;5651;50.926;4.718;2022-09-21T16:43:57;7.47;;;2.33;;
11189;SDS011;5651;50.926;4.718;2022-09-21T16:46:25;4.05;;;1.80;;
11189;SDS011;5651;50.926;4.718;2022-09-21T16:48:52;5.35;;;2.00;;
11189;SDS011;5651;50.926;4.718;2022-09-21T16:51:19;10.35;;;3.25;;
11189;SDS011;5651;50.926;4.718;2022-09-21T16:53:49;5.00;;;2.40;;
11189;SDS011;5651;50.926;4.718;2022-09-21T16:56:15;5.78;;;2.20;;
11189;SDS011;5651;50.926;4.718;2022-09-21T16:58:42;4.55;;;2.25;;
11189;SDS011;5651;50.926;4.718;2022-09-21T17:01:16;7.03;;;3.67;;
11189;SDS011;5651;50.926;4.718;2022-09-21T17:03:45;3.13;;;2.00;;
11189;SDS011;5651;50.926;4.718;2022-09-21T17:08:41;8.90;;;2.53;;
11189;SDS011;5651;50.926;4.718;2022-09-21T17:11:08;7.00;;;2.38;;
11189;SDS011;5651;50.926;4.718;2022-09-21T17:13:33;3.10;;;2.00;;
11189;SDS011;5651;50.926;4.718;2022-09-21T17:15:59;7.65;;;2.58;;
11189;SDS011;5651;50.926;4.718;2022-09-21T17:18:25;4.22;;;2.13;;
11189;SDS011;5651;50.926;4.718;2022-09-21T17:20:51;7.40;;;2.25;;
11189;SDS011;5651;50.926;4.718;2022-09-21T17:23:16;4.32;;;1.60;;
11189;SDS011;5651;50.926;4.718;2022-09-21T17:25:43;2.47;;;1.70;;
11189;SDS011;5651;50.926;4.718;2022-09-21T17:28:11;5.57;;;1.83;;
11189;SDS011;5651;50.926;4.718;2022-09-21T17:30:39;18.50;;;3.50;;
11189;SDS011;5651;50.926;4.718;2022-09-21T17:33:07;5.57;;;2.35;;
11189;SDS011;5651;50.926;4.718;2022-09-21T17:35:36;9.02;;;2.03;;
11189;SDS011;5651;50.926;4.718;2022-09-21T17:38:04;2.75;;;1.77;;
11189;SDS011;5651;50.926;4.718;2022-09-21T17:40:30;4.82;;;2.70;;
11189;SDS011;5651;50.926;4.718;2022-09-21T17:45:40;4.80;;;1.92;;
11189;SDS011;5651;50.926;4.718;2022-09-21T17:48:12;4.38;;;2.00;;
11189;SDS011;5651;50.926;4.718;2022-09-21T17:50:43;11.40;;;3.45;;
11189;SDS011;5651;50.926;4.718;2022-09-21T17:53:08;6.45;;;3.88;;
11189;SDS011;5651;50.926;4.718;2022-09-21T17:55:55;6.63;;;2.38;;
11189;SDS011;5651;50.926;4.718;2022-09-21T18:03:37;6.97;;;2.17;;
11189;SDS011;5651;50.926;4.718;2022-09-21T18:06:07;6.47;;;2.25;;
11189;SDS011;5651;50.926;4.718;2022-09-21T18:08:34;5.43;;;2.20;;
11189;SDS011;5651;50.926;4.718;2022-09-21T18:13:54;4.53;;;2.20;;
11189;SDS011;5651;50.926;4.718;2022-09-21T18:16:33;3.00;;;2.10;;
11189;SDS011;5651;50.926;4.718;2022-09-21T18:21:46;3.60;;;2.25;;
11189;SDS011;5651;50.926;4.718;2022-09-21T18:26:46;7.18;;;3.00;;
11189;SDS011;5651;50.926;4.718;2022-09-21T18:29:23;8.15;;;3.17;;
11189;SDS011;5651;50.926;4.718;2022-09-21T18:32:05;8.32;;;3.53;;
11189;SDS011;5651;50.926;4.718;2022-09-21T18:45:23;6.90;;;3.40;;
11189;SDS011;5651;50.926;4.718;2022-09-21T18:48:00;7.60;;;4.10;;
11189;SDS011;5651;50.926;4.718;2022-09-21T18:50:44;9.13;;;4.20;;
11189;SDS011;5651;50.926;4.718;2022-09-21T18:55:59;9.10;;;3.47;;
11189;SDS011;5651;50.926;4.718;2022-09-21T18:58:25;7.22;;;4.30;;
11189;SDS011;5651;50.926;4.718;2022-09-21T19:00:51;9.65;;;4.43;;
11189;SDS011;5651;50.926;4.718;2022-09-21T19:03:17;7.97;;;5.22;;
11189;SDS011;5651;50.926;4.718;2022-09-21T19:05:46;8.88;;;4.80;;
11189;SDS011;5651;50.926;4.718;2022-09-21T19:11:07;8.93;;;5.00;;
11189;SDS011;5651;50.926;4.718;2022-09-21T19:13:56;11.30;;;5.53;;
11189;SDS011;5651;50.926;4.718;2022-09-21T19:16:34;10.52;;;4.35;;